createdAt,value
2023-02-23T00:04:27.126Z,22.40
2023-02-23T00:09:27.092Z,21.00
2023-02-23T00:14:27.013Z,23.10
2023-02-23T00:19:26.944Z,22.60
2023-02-23T00:24:26.995Z,22.60
2023-02-23T00:29:26.827Z,25.70
2023-02-23T00:34:26.761Z,25.20
2023-02-23T00:39:26.782Z,22.60
2023-02-23T00:44:26.630Z,25.10
2023-02-23T00:49:26.608Z,26.80
2023-02-23T00:54:26.514Z,24.30
2023-02-23T00:59:26.427Z,26.70
2023-02-23T01:04:26.409Z,23.50
2023-02-23T01:09:26.284Z,24.50
2023-02-23T01:14:26.290Z,24.10
2023-02-23T01:19:26.167Z,24.20
2023-02-23T01:24:26.130Z,25.10
2023-02-23T01:29:26.028Z,24.20
2023-02-23T01:34:25.949Z,24.60
2023-02-23T01:39:25.897Z,24.70
2023-02-23T01:44:25.822Z,25.50
2023-02-23T01:49:25.769Z,24.60
2023-02-23T01:54:25.687Z,24.90
2023-02-23T01:59:25.620Z,24.30
2023-02-23T02:04:25.572Z,23.80
2023-02-23T02:09:25.494Z,25.60
2023-02-23T02:14:25.429Z,25.10
2023-02-23T02:19:25.369Z,28.00
2023-02-23T02:24:25.329Z,26.80
2023-02-23T02:29:29.370Z,25.60
2023-02-23T02:34:25.190Z,25.30
2023-02-23T02:39:25.105Z,25.60
2023-02-23T02:44:25.039Z,25.00
2023-02-23T02:49:24.972Z,25.10
2023-02-23T02:54:24.949Z,25.10
2023-02-23T02:59:24.863Z,24.50
2023-02-23T03:04:24.774Z,24.50
2023-02-23T03:09:24.707Z,26.10
2023-02-23T03:14:24.680Z,26.30
2023-02-23T03:19:24.612Z,27.00
2023-02-23T03:24:24.554Z,24.30
2023-02-23T03:29:24.482Z,26.60
2023-02-23T03:34:24.399Z,24.30
2023-02-23T03:39:24.352Z,24.90
2023-02-23T03:44:24.269Z,25.50
2023-02-23T03:49:24.204Z,28.60
2023-02-23T03:54:24.139Z,27.00
2023-02-23T03:59:24.056Z,25.30
2023-02-23T04:04:24.009Z,25.60
2023-02-23T04:09:23.940Z,26.10
2023-02-23T04:14:23.870Z,24.80
2023-02-23T04:19:23.804Z,26.80
2023-02-23T04:24:23.717Z,25.90
2023-02-23T04:29:23.660Z,26.50
2023-02-23T04:34:23.609Z,27.70
2023-02-23T04:39:23.528Z,25.70
2023-02-23T04:44:23.470Z,27.40
2023-02-23T04:49:23.393Z,29.70
2023-02-23T04:54:23.344Z,28.20
2023-02-23T04:59:23.273Z,27.80
2023-02-23T05:04:23.215Z,28.60
2023-02-23T05:09:23.158Z,27.60
2023-02-23T05:14:23.073Z,29.80
2023-02-23T05:19:23.034Z,27.70
2023-02-23T05:24:22.980Z,29.30
2023-02-23T05:29:22.864Z,30.50
2023-02-23T05:34:22.815Z,30.00
2023-02-23T05:39:22.740Z,29.20
2023-02-23T05:44:22.683Z,30.10
2023-02-23T05:49:22.614Z,30.30
2023-02-23T05:54:22.550Z,31.30
2023-02-23T05:59:22.505Z,31.10
2023-02-23T06:04:22.403Z,32.80
2023-02-23T06:09:22.349Z,30.40
2023-02-23T06:14:22.290Z,29.50
2023-02-23T06:19:22.223Z,32.20
2023-02-23T06:24:22.194Z,32.20
2023-02-23T06:29:22.077Z,31.30
2023-02-23T06:34:22.040Z,30.50
2023-02-23T06:39:21.952Z,32.60
2023-02-23T06:44:21.876Z,31.00
2023-02-23T06:49:21.814Z,32.00
2023-02-23T06:54:21.765Z,33.00
2023-02-23T06:59:21.675Z,31.60
2023-02-23T07:04:21.705Z,33.00
2023-02-23T07:09:21.558Z,32.00
2023-02-23T07:14:26.717Z,31.10
2023-02-23T07:19:22.480Z,32.70
2023-02-23T07:24:21.370Z,33.20
2023-02-23T07:29:21.314Z,32.00
2023-02-23T07:34:21.267Z,31.10
2023-02-23T07:39:21.162Z,32.60
2023-02-23T07:44:21.125Z,31.60
2023-02-23T07:49:21.057Z,32.30
2023-02-23T07:54:20.993Z,33.90
2023-02-23T07:59:20.999Z,30.50
2023-02-23T08:04:20.894Z,32.40
2023-02-23T08:09:20.788Z,34.40
2023-02-23T08:14:20.766Z,33.60
2023-02-23T08:19:20.649Z,33.60
2023-02-23T08:24:20.623Z,32.00
2023-02-23T08:29:20.527Z,32.00
2023-02-23T08:34:20.467Z,30.90
2023-02-23T08:39:20.387Z,30.90
2023-02-23T08:44:20.341Z,28.90
2023-02-23T08:49:20.271Z,28.00
2023-02-23T08:54:20.192Z,28.20
2023-02-23T08:59:20.114Z,27.70
2023-02-23T09:04:20.075Z,26.70
2023-02-23T09:09:19.991Z,28.50
2023-02-23T09:14:19.965Z,26.60
2023-02-23T09:19:19.857Z,23.50
2023-02-23T09:24:19.796Z,26.40
2023-02-23T09:29:19.718Z,28.40
2023-02-23T09:34:19.696Z,26.60
2023-02-23T09:39:29.137Z,23.60
2023-02-23T09:44:20.552Z,22.70
2023-02-23T09:49:19.434Z,24.10
2023-02-23T09:54:19.380Z,26.40
2023-02-23T09:59:19.335Z,24.60
2023-02-23T10:04:19.266Z,24.90
2023-02-23T10:09:19.218Z,24.60
2023-02-23T10:14:19.158Z,22.90
2023-02-23T10:19:19.043Z,25.90
2023-02-23T10:24:18.988Z,22.00
2023-02-23T10:29:18.938Z,24.00
2023-02-23T10:34:18.870Z,22.40
2023-02-23T10:39:18.805Z,21.50
2023-02-23T10:44:18.736Z,21.60
2023-02-23T10:49:18.671Z,22.40
2023-02-23T10:54:18.633Z,22.40
2023-02-23T10:59:18.564Z,25.20
2023-02-23T11:04:19.064Z,22.90
2023-02-23T11:09:18.461Z,22.30
2023-02-23T11:14:18.349Z,21.60
2023-02-23T11:19:18.301Z,20.30
2023-02-23T11:24:18.244Z,19.90
2023-02-23T11:29:18.139Z,19.10
2023-02-23T11:34:18.113Z,18.10
2023-02-23T11:39:18.043Z,19.90
2023-02-23T11:44:18.001Z,18.60
2023-02-23T11:49:17.890Z,19.30
2023-02-23T11:54:17.827Z,18.40
2023-02-23T11:59:17.754Z,16.60
2023-02-23T12:04:17.686Z,18.20
2023-02-23T12:09:17.604Z,17.40
2023-02-23T12:14:17.546Z,16.20
2023-02-23T12:19:17.482Z,16.90
2023-02-23T12:24:17.405Z,15.10
2023-02-23T12:29:17.334Z,15.80
2023-02-23T12:34:17.311Z,17.70
2023-02-23T12:39:17.203Z,16.30
2023-02-23T12:44:17.153Z,15.10
2023-02-23T12:49:17.113Z,15.20
2023-02-23T12:54:17.005Z,16.30
2023-02-23T12:59:16.961Z,17.60
2023-02-23T13:04:16.889Z,17.70
2023-02-23T13:09:16.838Z,19.20
2023-02-23T13:14:16.775Z,18.50
2023-02-23T13:19:16.704Z,17.50
2023-02-23T13:24:16.670Z,19.00
2023-02-23T13:29:16.577Z,17.70
2023-02-23T13:34:16.509Z,16.60
2023-02-23T13:39:18.996Z,17.70
2023-02-23T13:44:16.411Z,17.70
2023-02-23T13:49:16.303Z,18.90
2023-02-23T13:54:16.254Z,19.30
2023-02-23T13:59:16.213Z,18.60
2023-02-23T14:04:16.112Z,18.50
2023-02-23T14:09:16.046Z,19.60
2023-02-23T14:14:15.981Z,20.90
2023-02-23T14:19:15.898Z,20.00
2023-02-23T14:24:15.881Z,17.70
2023-02-23T14:29:15.809Z,19.30
2023-02-23T14:34:15.740Z,17.60
2023-02-23T14:39:15.636Z,17.40
2023-02-23T14:44:28.350Z,20.60
2023-02-23T14:49:16.536Z,17.00
2023-02-23T14:54:15.506Z,19.80
2023-02-23T14:59:15.623Z,18.80
2023-02-23T15:04:15.414Z,26.60
2023-02-23T15:09:15.272Z,27.80
2023-02-23T15:14:26.826Z,29.30
2023-02-23T15:19:16.112Z,33.10
2023-02-23T15:24:15.048Z,35.10
2023-02-23T15:29:14.987Z,33.60
2023-02-23T15:34:14.923Z,34.10
2023-02-23T15:39:14.852Z,36.90
2023-02-23T15:44:14.809Z,32.70
2023-02-23T15:49:14.780Z,32.30
2023-02-23T15:54:14.674Z,36.10
2023-02-23T15:59:14.631Z,34.10
2023-02-23T16:04:14.577Z,32.80
2023-02-23T16:09:14.498Z,36.90
2023-02-23T16:14:14.409Z,33.40
2023-02-23T16:19:14.339Z,34.50
2023-02-23T16:24:14.292Z,30.80
2023-02-23T16:29:14.253Z,32.10
2023-02-23T16:34:14.205Z,34.10
2023-02-23T16:39:14.072Z,32.10
2023-02-23T16:44:14.016Z,34.50
2023-02-23T16:49:13.945Z,35.70
2023-02-23T16:54:13.931Z,33.50
2023-02-23T16:59:13.863Z,33.70
2023-02-23T17:04:13.777Z,38.30
2023-02-23T17:09:13.834Z,45.20
2023-02-23T17:14:13.639Z,43.60
2023-02-23T17:19:13.545Z,39.60
2023-02-23T17:24:13.521Z,40.50
2023-02-23T17:29:13.439Z,41.40
2023-02-23T17:34:13.399Z,38.50
2023-02-23T17:39:13.297Z,44.80
2023-02-23T17:44:13.640Z,35.70
2023-02-23T17:49:13.139Z,39.50
2023-02-23T17:54:13.198Z,38.20
2023-02-23T17:59:13.035Z,40.70
2023-02-23T18:04:12.991Z,40.30
2023-02-23T18:09:12.889Z,42.70
2023-02-23T18:14:12.864Z,42.20
2023-02-23T18:19:12.753Z,44.90
2023-02-23T18:24:12.803Z,41.30
2023-02-23T18:29:12.679Z,45.70
2023-02-23T18:34:12.579Z,49.40
2023-02-23T18:39:12.489Z,50.10
2023-02-23T18:44:12.413Z,48.40
2023-02-23T18:49:12.373Z,49.70
2023-02-23T18:54:12.305Z,53.10
2023-02-23T18:59:12.213Z,52.50
2023-02-23T19:04:12.163Z,52.60
2023-02-23T19:09:12.101Z,59.10
2023-02-23T19:14:12.040Z,58.70
2023-02-23T19:19:11.995Z,59.30
2023-02-23T19:24:11.926Z,61.10
2023-02-23T19:29:11.908Z,66.00
2023-02-23T19:34:11.780Z,64.60
2023-02-23T19:39:11.714Z,67.10
2023-02-23T19:44:11.672Z,62.80
2023-02-23T19:49:11.596Z,70.20
2023-02-23T19:54:11.536Z,66.20
2023-02-23T19:59:11.509Z,66.90
2023-02-23T20:04:11.395Z,68.30
2023-02-23T20:09:11.447Z,69.40
2023-02-23T20:14:11.272Z,69.30
2023-02-23T20:19:11.292Z,69.10
2023-02-23T20:24:11.149Z,75.70
2023-02-23T20:29:11.440Z,74.10
2023-02-23T20:34:11.131Z,79.40
2023-02-23T20:39:10.904Z,78.40
2023-02-23T20:44:10.978Z,73.40
2023-02-23T20:49:10.791Z,74.90
2023-02-23T20:54:10.778Z,74.10
2023-02-23T20:59:10.663Z,70.30
2023-02-23T21:04:10.624Z,76.00
2023-02-23T21:09:10.527Z,79.50
2023-02-23T21:14:10.452Z,75.00
2023-02-23T21:19:11.413Z,76.80
2023-02-23T21:24:10.332Z,74.60
2023-02-23T21:29:10.254Z,77.10
2023-02-23T21:34:10.203Z,73.20
2023-02-23T21:39:10.169Z,72.40
2023-02-23T21:44:10.088Z,72.80
2023-02-23T21:49:10.155Z,78.10
2023-02-23T21:54:09.966Z,71.90
2023-02-23T21:59:09.868Z,90.20
2023-02-23T22:04:09.810Z,92.70
2023-02-23T22:09:09.765Z,105.20
2023-02-23T22:14:09.687Z,103.70
2023-02-23T22:19:09.700Z,107.50
2023-02-23T22:24:09.542Z,114.80
2023-02-23T22:29:09.513Z,119.90
2023-02-23T22:34:09.400Z,126.90
2023-02-23T22:39:09.345Z,130.70
2023-02-23T22:44:09.313Z,128.20
2023-02-23T22:49:09.206Z,134.10
2023-02-23T22:54:13.197Z,140.20
2023-02-23T22:59:09.093Z,136.70
2023-02-23T23:04:09.075Z,136.60
2023-02-23T23:09:08.962Z,132.20
2023-02-23T23:14:08.857Z,122.30
2023-02-23T23:19:08.864Z,129.80
2023-02-23T23:24:08.757Z,120.00
2023-02-23T23:29:08.685Z,112.40
2023-02-23T23:34:08.601Z,103.50
2023-02-23T23:39:08.559Z,111.30
2023-02-23T23:44:08.473Z,108.40
2023-02-23T23:49:08.396Z,103.40
2023-02-23T23:54:08.375Z,106.40
2023-02-23T23:59:08.248Z,98.80
